Time;durP1;ratioP1;P1;durP2;ratioP2;P2;SDS_P1;SDS_P2;PMS_P1;PMS_P2;Temp;Humidity;BMP_temperature;BMP_pressure;BME280_temperature;BME280_humidity;BME280_pressure;Samples;Min_cycle;Max_cycle;Signal;HPM_P1;HPM_P2
2023/01/21 00:00:14;;;;;;;;;;;;;;;;;;1038827;28;2098;-50
2023/01/21 00:01:04;;;;;;;;;;;;;;;;;;1034800;28;3886;-50
2023/01/21 00:01:34;;;;;;;;;;;;;;;;;;1035276;28;3970;-50
2023/01/21 00:02:05;;;;;;;;;;;;;;;;;;1034120;28;2121;-51
2023/01/21 00:02:35;;;;;;;;;;;;;;;;;;1039249;28;4042;-52
2023/01/21 00:03:05;;;;;;;;;;;;;;;;;;1038653;28;2815;-51
2023/01/21 00:03:36;;;;;;;;;;;;;;;;;;1040296;28;4417;-53
2023/01/21 00:04:06;;;;;;;;;;;;;;;;;;1041906;28;2061;-53
2023/01/21 00:04:37;;;;;;;;;;;;;;;;;;1039874;28;3987;-55
2023/01/21 00:05:07;;;;;;;;;;;;;;;;;;1038433;28;2905;-49
2023/01/21 00:05:37;;;;;;;;;;;;;;;;;;1038885;28;4201;-53
2023/01/21 00:06:07;;;;;;;;;;;;;;;;;;1037956;28;3120;-50
2023/01/21 00:06:38;;;;;;;;;;;;;;;;;;1038256;28;3954;-49
2023/01/21 00:07:08;;;;;;;;;;;;;;;;;;1040289;28;2386;-48
2023/01/21 00:07:38;;;;;;;;;;;;;;;;;;1038651;28;3999;-52
2023/01/21 00:08:08;;;;;;;;;;;;;;;;;;1040181;28;2063;-52
2023/01/21 00:08:39;;;;;;;;;;;;;;;;;;1038613;28;3949;-52
2023/01/21 00:09:09;;;;;;;;;;;;;;;;;;1038287;28;2800;-51
2023/01/21 00:09:39;;;;;;;;;;;;;;;;;;1038605;28;3903;-51
2023/01/21 00:10:10;;;;;;;;;;;;;;;;;;1039651;28;2123;-48
2023/01/21 00:10:40;;;;;;;;;;;;;;;;;;1037885;28;4039;-50
2023/01/21 00:11:13;;;;;;;;;;;;;;;;;;1039145;28;2886;-53
2023/01/21 00:11:43;;;;;;;;;;;;;;;;;;1035574;28;4406;-48
2023/01/21 00:12:13;;;;;;;;;;;;;;;;;;1037468;28;2197;-50
2023/01/21 00:12:44;;;;;;;;;;;;;;;;;;1034783;28;3865;-50
2023/01/21 00:13:14;;;;;;;;;;;;;;;;;;1036023;28;2176;-50
2023/01/21 00:13:44;;;;;;;;;;;;;;;;;;1040114;28;4461;-50
2023/01/21 00:14:14;;;;;;;;;;;;;;;;;;1041085;28;2404;-50
2023/01/21 00:14:58;;;;;;;;;;;;;;;;;;1039015;28;4404;-52
2023/01/21 00:15:35;;;;;;;;;;;;;;;;;;1034902;28;4433;-47
2023/01/21 00:16:06;;;;;;;;;;;;;;;;;;1029904;28;2878;-49
2023/01/21 00:16:36;;;;;;;;;;;;;;;;;;1031403;28;4387;-51
2023/01/21 00:17:07;;;;;;;;;;;;;;;;;;1032100;28;2890;-51
2023/01/21 00:17:37;;;;;;;;;;;;;;;;;;1034270;28;3967;-53
2023/01/21 00:18:07;;;;;;;;;;;;;;;;;;1038935;28;1816;-54
2023/01/21 00:18:37;;;;;;;;;;;;;;;;;;1041790;28;3808;-51
2023/01/21 00:19:08;;;;;;;;;;;;;;;;;;1039667;28;2507;-49
2023/01/21 00:19:38;;;;;;;;;;;;;;;;;;1039747;28;3841;-50
2023/01/21 00:20:09;;;;;;;;;;;;;;;;;;1040722;28;2922;-52
2023/01/21 00:20:39;;;;;;;;;;;;;;;;;;1039989;28;4933;-52
2023/01/21 00:21:09;;;;;;;;;;;;;;;;;;1041248;28;2843;-50
2023/01/21 00:21:39;;;;;;;;;;;;;;;;;;1041414;28;3823;-54
2023/01/21 00:22:16;;;;;;;;;;;;;;;;;;1040273;28;3192;-50
2023/01/21 00:22:47;;;;;;;;;;;;;;;;;;1040158;28;3946;-50
2023/01/21 00:23:17;;;;;;;;;;;;;;;;;;1039188;28;3322;-52
2023/01/21 00:23:47;;;;;;;;;;;;;;;;;;1038096;28;3875;-50
2023/01/21 00:24:18;;;;;;;;;;;;;;;;;;1040113;28;2642;-48
2023/01/21 00:24:48;;;;;;;;;;;;;;;;;;1038408;28;4527;-51
2023/01/21 00:25:18;;;;;;;;;;;;;;;;;;1040568;28;1967;-54
2023/01/21 00:25:49;;;;;;;;;;;;;;;;;;1039878;28;3875;-51
2023/01/21 00:26:19;;;;;;;;;;;;;;;;;;1035064;28;1911;-50
2023/01/21 00:26:49;;;;;;;;;;;;;;;;;;1035299;28;4075;-54
2023/01/21 00:27:19;;;;;;;;;;;;;;;;;;1034879;28;2174;-51
2023/01/21 00:27:50;;;;;;;;;;;;;;;;;;1034281;28;4086;-49
2023/01/21 00:28:20;;;;;;;;;;;;;;;;;;1039232;28;2502;-50
2023/01/21 00:28:50;;;;;;;;;;;;;;;;;;1041694;28;3778;-53
2023/01/21 00:29:21;;;;;;;;;;;;;;;;;;1039334;28;3077;-50
2023/01/21 00:29:51;;;;;;;;;;;;;;;;;;1037349;28;3840;-50
2023/01/21 00:30:21;;;;;;;;;;;;;;;;;;1040183;28;2526;-52
2023/01/21 00:30:55;;;;;;;;;;;;;;;;;;1039859;28;4027;-54
2023/01/21 00:31:26;;;;;;;;;;;;;;;;;;1039544;28;2626;-49
2023/01/21 00:31:56;;;;;;;;;;;;;;;;;;1040241;28;4295;-50
2023/01/21 00:32:26;;;;;;;;;;;;;;;;;;1038543;28;1705;-48
2023/01/21 00:32:57;;;;;;;;;;;;;;;;;;1039188;28;3983;-49
2023/01/21 00:33:28;;;;;;;;;;;;;;;;;;1038676;28;1866;-52
2023/01/21 00:33:58;;;;;;;;;;;;;;;;;;1038025;28;3824;-47
2023/01/21 00:34:28;;;;;;;;;;;;;;;;;;1039757;28;2274;-53
2023/01/21 00:34:58;;;;;;;;;;;;;;;;;;1038869;28;3904;-51
2023/01/21 00:35:29;;;;;;;;;;;;;;;;;;1039208;28;2975;-51
2023/01/21 00:36:00;;;;;;;;;;;;;;;;;;1039138;28;4281;-50
2023/01/21 00:36:30;;;;;;;;;;;;;;;;;;1038221;28;3940;-50
2023/01/21 00:37:00;;;;;;;;;;;;;;;;;;1039262;28;2861;-53
2023/01/21 00:37:31;;;;;;;;;;;;;;;;;;1037354;28;3902;-53
2023/01/21 00:38:01;;;;;;;;;;;;;;;;;;1040080;28;3205;-49
2023/01/21 00:38:32;;;;;;;;;;;;;;;;;;1039285;28;4078;-53
2023/01/21 00:39:02;;;;;;;;;;;;;;;;;;1035115;28;3302;-51
2023/01/21 00:39:33;;;;;;;;;;;;;;;;;;1033778;28;3851;-53
2023/01/21 00:40:04;;;;;;;;;;;;;;;;;;1035358;28;2854;-53
2023/01/21 00:40:34;;;;;;;;;;;;;;;;;;1036341;28;4043;-51
2023/01/21 00:41:05;;;;;;;;;;;;;;;;;;1040678;28;2708;-51
2023/01/21 00:41:36;;;;;;;;;;;;;;;;;;1040932;28;3948;-48
2023/01/21 00:42:07;;;;;;;;;;;;;;;;;;1038764;28;3022;-49
2023/01/21 00:42:37;;;;;;;;;;;;;;;;;;1039370;28;3816;-50
2023/01/21 00:43:07;;;;;;;;;;;;;;;;;;1040797;28;2800;-51
2023/01/21 00:43:38;;;;;;;;;;;;;;;;;;1039533;28;3953;-51
2023/01/21 00:44:08;;;;;;;;;;;;;;;;;;1040410;28;1715;-49
2023/01/21 00:44:39;;;;;;;;;;;;;;;;;;1037477;28;4131;-49
2023/01/21 00:45:09;;;;;;;;;;;;;;;;;;1040047;28;2776;-50
2023/01/21 00:45:39;;;;;;;;;;;;;;;;;;1039790;28;3970;-48
2023/01/21 00:46:10;;;;;;;;;;;;;;;;;;1036246;28;1681;-54
2023/01/21 00:46:40;;;;;;;;;;;;;;;;;;1035694;28;4399;-50
2023/01/21 00:47:11;;;;;;;;;;;;;;;;;;1035146;28;2178;-51
2023/01/21 00:47:41;;;;;;;;;;;;;;;;;;1034682;28;3840;-52
2023/01/21 00:48:11;;;;;;;;;;;;;;;;;;1038185;28;2667;-48
2023/01/21 00:48:41;;;;;;;;;;;;;;;;;;1041440;28;3894;-51
2023/01/21 00:49:12;;;;;;;;;;;;;;;;;;1040357;28;2835;-51
2023/01/21 00:49:42;;;;;;;;;;;;;;;;;;1038232;28;3972;-52
2023/01/21 00:50:12;;;;;;;;;;;;;;;;;;1036194;28;2358;-50
2023/01/21 00:50:42;;;;;;;;;;;;;;;;;;1034741;28;4153;-52
2023/01/21 00:51:13;;;;;;;;;;;;;;;;;;1035136;28;2981;-50
2023/01/21 00:51:43;;;;;;;;;;;;;;;;;;1036533;28;3946;-50
2023/01/21 00:52:13;;;;;;;;;;;;;;;;;;1039245;28;2027;-49
2023/01/21 00:52:43;;;;;;;;;;;;;;;;;;1039820;28;4386;-51
2023/01/21 00:53:14;;;;;;;;;;;;;;;;;;1040459;28;1904;-50
2023/01/21 00:53:44;;;;;;;;;;;;;;;;;;1039828;28;4055;-53
2023/01/21 00:54:14;;;;;;;;;;;;;;;;;;1041222;28;1636;-49
2023/01/21 00:54:44;;;;;;;;;;;;;;;;;;1039789;28;3922;-52
2023/01/21 00:55:15;;;;;;;;;;;;;;;;;;1041750;28;2424;-51
2023/01/21 00:55:45;;;;;;;;;;;;;;;;;;1040960;28;4102;-49
2023/01/21 00:56:15;;;;;;;;;;;;;;;;;;1041041;28;1700;-48
2023/01/21 00:56:45;;;;;;;;;;;;;;;;;;1040712;28;4215;-52
2023/01/21 00:57:16;;;;;;;;;;;;;;;;;;1040265;28;2085;-50
2023/01/21 00:57:46;;;;;;;;;;;;;;;;;;1040470;28;3945;-54
2023/01/21 00:58:16;;;;;;;;;;;;;;;;;;1041450;28;2118;-49
2023/01/21 00:58:46;;;;;;;;;;;;;;;;;;1040455;28;3790;-51
2023/01/21 00:59:17;;;;;;;;;;;;;;;;;;1040738;28;3104;-51
2023/01/21 00:59:47;;;;;;;;;;;;;;;;;;1039168;28;3858;-53
2023/01/21 01:00:18;;;;;;;;;;;;;;;;;;1041336;28;2078;-52
2023/01/21 01:00:48;;;;;;;;;;;;;;;;;;1040003;28;4032;-49
2023/01/21 01:01:19;;;;;;;;;;;;;;;;;;1038966;28;2961;-52
2023/01/21 01:01:50;;;;;;;;;;;;;;;;;;1042144;28;3940;-52
2023/01/21 01:02:20;;;;;;;;;;;;;;;;;;1041631;28;2358;-50
2023/01/21 01:02:50;;;;;;;;;;;;;;;;;;1039933;28;4450;-51
2023/01/21 01:03:20;;;;;;;;;;;;;;;;;;1037797;28;2780;-53
2023/01/21 01:03:51;;;;;;;;;;;;;;;;;;1039430;28;3879;-51
2023/01/21 01:04:21;;;;;;;;;;;;;;;;;;1038956;28;2505;-50
2023/01/21 01:04:52;;;;;;;;;;;;;;;;;;1038794;28;4029;-49
2023/01/21 01:05:22;;;;;;;;;;;;;;;;;;1040752;28;2017;-48
2023/01/21 01:05:52;;;;;;;;;;;;;;;;;;1039648;28;3871;-51
2023/01/21 01:06:23;;;;;;;;;;;;;;;;;;1040555;28;2344;-49
2023/01/21 01:06:53;;;;;;;;;;;;;;;;;;1038651;28;3941;-49
2023/01/21 01:07:23;;;;;;;;;;;;;;;;;;1040773;28;2991;-53
2023/01/21 01:07:53;;;;;;;;;;;;;;;;;;1038353;28;3804;-51
2023/01/21 01:08:24;;;;;;;;;;;;;;;;;;1039880;28;1979;-51
2023/01/21 01:08:57;;;;;;;;;;;;;;;;;;1037539;28;3793;-54
2023/01/21 01:09:27;;;;;;;;;;;;;;;;;;1039642;28;2775;-54
2023/01/21 01:09:57;;;;;;;;;;;;;;;;;;1040749;28;3806;-48
2023/01/21 01:10:28;;;;;;;;;;;;;;;;;;1040730;28;2873;-51
2023/01/21 01:10:58;;;;;;;;;;;;;;;;;;1032864;28;3847;-50
2023/01/21 01:11:29;;;;;;;;;;;;;;;;;;1036281;28;2435;-55
2023/01/21 01:11:59;;;;;;;;;;;;;;;;;;1032823;28;3979;-50
2023/01/21 01:12:30;;;;;;;;;;;;;;;;;;1038503;28;4017;-51
2023/01/21 01:13:00;;;;;;;;;;;;;;;;;;1041252;28;2714;-54
2023/01/21 01:13:32;;;;;;;;;;;;;;;;;;1039404;28;3969;-48
2023/01/21 01:14:02;;;;;;;;;;;;;;;;;;1039545;28;2248;-51
2023/01/21 01:14:46;;;;;;;;;;;;;;;;;;1039443;28;4170;-52
2023/01/21 01:15:23;;;;;;;;;;;;;;;;;;1039930;28;2348;-49
2023/01/21 01:15:56;;;;;;;;;;;;;;;;;;1039651;28;4021;-54
2023/01/21 01:16:26;;;;;;;;;;;;;;;;;;1041018;28;2260;-47
2023/01/21 01:16:56;;;;;;;;;;;;;;;;;;1042000;28;4111;-49
2023/01/21 01:17:26;;;;;;;;;;;;;;;;;;1040285;28;1984;-49
2023/01/21 01:17:57;;;;;;;;;;;;;;;;;;1041984;28;4329;-53
2023/01/21 01:18:28;;;;;;;;;;;;;;;;;;1039730;28;1845;-50
2023/01/21 01:18:58;;;;;;;;;;;;;;;;;;1040519;28;3966;-46
2023/01/21 01:19:29;;;;;;;;;;;;;;;;;;1039071;28;3028;-48
2023/01/21 01:19:59;;;;;;;;;;;;;;;;;;1039923;28;4385;-50
2023/01/21 01:20:29;;;;;;;;;;;;;;;;;;1039426;28;2935;-53
2023/01/21 01:21:00;;;;;;;;;;;;;;;;;;1039080;28;3883;-51
2023/01/21 01:21:30;;;;;;;;;;;;;;;;;;1040802;28;4391;-50
2023/01/21 01:22:06;;;;;;;;;;;;;;;;;;1039238;28;2574;-53
2023/01/21 01:22:37;;;;;;;;;;;;;;;;;;1041014;28;4396;-51
2023/01/21 01:23:07;;;;;;;;;;;;;;;;;;1038688;28;2158;-53
2023/01/21 01:23:38;;;;;;;;;;;;;;;;;;1041254;28;3891;-52
2023/01/21 01:24:08;;;;;;;;;;;;;;;;;;1038818;28;2036;-49
2023/01/21 01:24:38;;;;;;;;;;;;;;;;;;1041265;28;3822;-50
2023/01/21 01:25:08;;;;;;;;;;;;;;;;;;1040018;28;3050;-51
2023/01/21 01:25:39;;;;;;;;;;;;;;;;;;1040275;28;3950;-49
2023/01/21 01:26:12;;;;;;;;;;;;;;;;;;1041450;28;1838;-56
2023/01/21 01:26:42;;;;;;;;;;;;;;;;;;1041635;28;3904;-49
2023/01/21 01:27:12;;;;;;;;;;;;;;;;;;1038836;28;2308;-50
2023/01/21 01:27:42;;;;;;;;;;;;;;;;;;1039350;28;3797;-52
2023/01/21 01:28:13;;;;;;;;;;;;;;;;;;1040487;28;2373;-52
2023/01/21 01:28:44;;;;;;;;;;;;;;;;;;1040692;28;3868;-50
2023/01/21 01:29:14;;;;;;;;;;;;;;;;;;1039112;28;2034;-51
2023/01/21 01:29:44;;;;;;;;;;;;;;;;;;1038979;28;4077;-50
2023/01/21 01:30:14;;;;;;;;;;;;;;;;;;1039411;28;2722;-51
2023/01/21 01:30:45;;;;;;;;;;;;;;;;;;1036127;28;4065;-50
2023/01/21 01:31:16;;;;;;;;;;;;;;;;;;1034428;28;2677;-52
2023/01/21 01:31:46;;;;;;;;;;;;;;;;;;1036097;28;4392;-50
2023/01/21 01:32:17;;;;;;;;;;;;;;;;;;1037093;28;2071;-51
2023/01/21 01:32:47;;;;;;;;;;;;;;;;;;1039938;28;4506;-53
2023/01/21 01:33:18;;;;;;;;;;;;;;;;;;1040969;28;2928;-51
2023/01/21 01:33:48;;;;;;;;;;;;;;;;;;1037118;28;3803;-51
2023/01/21 01:34:18;;;;;;;;;;;;;;;;;;1036163;28;2768;-50
2023/01/21 01:34:49;;;;;;;;;;;;;;;;;;1035890;28;3990;-48
2023/01/21 01:35:19;;;;;;;;;;;;;;;;;;1037610;28;2168;-49
2023/01/21 01:35:49;;;;;;;;;;;;;;;;;;1040455;28;4227;-50
2023/01/21 01:36:23;;;;;;;;;;;;;;;;;;1038678;28;3194;-52
2023/01/21 01:36:54;;;;;;;;;;;;;;;;;;1041287;28;4247;-50
2023/01/21 01:37:24;;;;;;;;;;;;;;;;;;1040097;28;2150;-49
2023/01/21 01:37:54;;;;;;;;;;;;;;;;;;1039792;28;3727;-49
2023/01/21 01:38:24;;;;;;;;;;;;;;;;;;1040058;28;2417;-50
2023/01/21 01:38:55;;;;;;;;;;;;;;;;;;1039406;28;3866;-50
2023/01/21 01:39:25;;;;;;;;;;;;;;;;;;1038162;28;3308;-51
2023/01/21 01:39:55;;;;;;;;;;;;;;;;;;1039866;28;3844;-52
2023/01/21 01:40:30;;;;;;;;;;;;;;;;;;1039493;28;2216;-51
2023/01/21 01:41:01;;;;;;;;;;;;;;;;;;1040969;28;3805;-49
2023/01/21 01:41:33;;;;;;;;;;;;;;;;;;1039532;28;4079;-48
2023/01/21 01:42:04;;;;;;;;;;;;;;;;;;1041390;28;2729;-54
2023/01/21 01:42:34;;;;;;;;;;;;;;;;;;1039194;28;4088;-52
2023/01/21 01:43:07;;;;;;;;;;;;;;;;;;1039279;28;1721;-52
2023/01/21 01:43:50;;;;;;;;;;;;;;;;;;1039649;28;3880;-51
2023/01/21 01:44:39;;;;;;;;;;;;;;;;;;1033431;28;2306;-55
2023/01/21 01:45:17;;;;;;;;;;;;;;;;;;1034739;28;3836;-50
2023/01/21 01:45:48;;;;;;;;;;;;;;;;;;1033490;28;4112;-49
2023/01/21 01:46:18;;;;;;;;;;;;;;;;;;1038715;28;3062;-55
2023/01/21 01:46:48;;;;;;;;;;;;;;;;;;1040441;28;4054;-55
2023/01/21 01:47:20;;;;;;;;;;;;;;;;;;1040239;28;1589;-50
2023/01/21 01:47:57;;;;;;;;;;;;;;;;;;1040666;28;4388;-51
2023/01/21 01:48:28;;;;;;;;;;;;;;;;;;1039593;28;1906;-55
2023/01/21 01:49:11;;;;;;;;;;;;;;;;;;1041198;28;3736;-50
2023/01/21 01:49:41;;;;;;;;;;;;;;;;;;1039251;28;4092;-53
2023/01/21 01:50:13;;;;;;;;;;;;;;;;;;1039881;28;2098;-51
2023/01/21 01:50:45;;;;;;;;;;;;;;;;;;1035101;28;4112;-53
2023/01/21 01:51:16;;;;;;;;;;;;;;;;;;1034985;28;2625;-49
2023/01/21 01:51:50;;;;;;;;;;;;;;;;;;1035047;28;4061;-50
2023/01/21 01:52:20;;;;;;;;;;;;;;;;;;1036291;28;2175;-49
2023/01/21 01:52:50;;;;;;;;;;;;;;;;;;1038894;28;4088;-52
2023/01/21 01:53:21;;;;;;;;;;;;;;;;;;1042374;28;1898;-51
2023/01/21 01:53:52;;;;;;;;;;;;;;;;;;1042014;28;3963;-48
2023/01/21 01:54:25;;;;;;;;;;;;;;;;;;1041458;28;2063;-51
2023/01/21 01:54:57;;;;;;;;;;;;;;;;;;1037915;28;3862;-49
2023/01/21 01:55:29;;;;;;;;;;;;;;;;;;1040941;28;2756;-53
2023/01/21 01:55:59;;;;;;;;;;;;;;;;;;1038814;28;3869;-53
2023/01/21 01:56:30;;;;;;;;;;;;;;;;;;1041240;28;2335;-49
2023/01/21 01:57:01;;;;;;;;;;;;;;;;;;1037114;28;3848;-48
2023/01/21 01:57:34;;;;;;;;;;;;;;;;;;1031196;28;4110;-50
2023/01/21 01:58:06;;;;;;;;;;;;;;;;;;1033851;28;1971;-51
2023/01/21 01:58:37;;;;;;;;;;;;;;;;;;1032141;28;3908;-52
2023/01/21 01:59:07;;;;;;;;;;;;;;;;;;1034997;28;2669;-50
2023/01/21 01:59:38;;;;;;;;;;;;;;;;;;1039236;28;3964;-50
2023/01/21 02:00:10;;;;;;;;;;;;;;;;;;1034118;28;2870;-54
2023/01/21 02:00:40;;;;;;;;;;;;;;;;;;1036115;28;4031;-49
2023/01/21 02:01:10;;;;;;;;;;;;;;;;;;1034752;28;2659;-51
2023/01/21 02:01:47;;;;;;;;;;;;;;;;;;1036038;28;3951;-53
2023/01/21 02:02:18;;;;;;;;;;;;;;;;;;1038892;28;3226;-53
2023/01/21 02:03:43;;;;;;;;;;;;;;;;;;1039418;28;3948;-50
2023/01/21 02:04:16;;;;;;;;;;;;;;;;;;1038678;28;2142;-49
2023/01/21 02:04:48;;;;;;;;;;;;;;;;;;1040031;28;3911;-50
2023/01/21 02:05:19;;;;;;;;;;;;;;;;;;1038179;28;1911;-48
2023/01/21 02:05:49;;;;;;;;;;;;;;;;;;1037048;28;3928;-47
2023/01/21 02:06:19;;;;;;;;;;;;;;;;;;1035660;28;2808;-49
2023/01/21 02:06:51;;;;;;;;;;;;;;;;;;1035449;28;3916;-50
2023/01/21 02:07:22;;;;;;;;;;;;;;;;;;1035811;28;2118;-49
2023/01/21 02:07:52;;;;;;;;;;;;;;;;;;1038416;28;3885;-49
2023/01/21 02:08:23;;;;;;;;;;;;;;;;;;1039537;28;2021;-51
2023/01/21 02:08:54;;;;;;;;;;;;;;;;;;1040236;28;3928;-52
2023/01/21 02:09:28;;;;;;;;;;;;;;;;;;1039214;28;2802;-49
2023/01/21 02:09:58;;;;;;;;;;;;;;;;;;1039954;28;4172;-54
2023/01/21 02:10:30;;;;;;;;;;;;;;;;;;1040274;28;2585;-51
2023/01/21 02:11:01;;;;;;;;;;;;;;;;;;1039976;28;3796;-50
2023/01/21 02:11:32;;;;;;;;;;;;;;;;;;1040239;28;3892;-51
2023/01/21 02:12:03;;;;;;;;;;;;;;;;;;1040379;28;2322;-52
2023/01/21 02:12:33;;;;;;;;;;;;;;;;;;1041207;28;3821;-52
2023/01/21 02:13:04;;;;;;;;;;;;;;;;;;1039221;28;2443;-50
2023/01/21 02:13:34;;;;;;;;;;;;;;;;;;1040509;28;4257;-50
2023/01/21 02:14:04;;;;;;;;;;;;;;;;;;1040321;28;3230;-52
2023/01/21 02:14:48;;;;;;;;;;;;;;;;;;1038941;28;4057;-49
2023/01/21 02:15:31;;;;;;;;;;;;;;;;;;1040485;28;2376;-51
2023/01/21 02:16:20;;;;;;;;;;;;;;;;;;1041148;28;3923;-49
2023/01/21 02:16:58;;;;;;;;;;;;;;;;;;1040261;28;3782;-54
2023/01/21 02:17:47;;;;;;;;;;;;;;;;;;1040143;28;2337;-52
2023/01/21 02:18:26;;;;;;;;;;;;;;;;;;1038009;28;3934;-51
2023/01/21 02:19:31;;;;;;;;;;;;;;;;;;1037608;28;4244;-49
2023/01/21 02:20:01;;;;;;;;;;;;;;;;;;1038357;28;3982;-53
2023/01/21 02:20:49;;;;;;;;;;;;;;;;;;1040078;28;4455;-49
2023/01/21 02:21:31;;;;;;;;;;;;;;;;;;1039240;28;2780;-51
2023/01/21 02:22:19;;;;;;;;;;;;;;;;;;1039594;28;3800;-49
2023/01/21 02:22:56;;;;;;;;;;;;;;;;;;1039415;28;3942;-50
2023/01/21 02:23:54;;;;;;;;;;;;;;;;;;1039890;28;2949;-55
2023/01/21 02:24:42;;;;;;;;;;;;;;;;;;1039354;28;3924;-49
2023/01/21 02:25:28;;;;;;;;;;;;;;;;;;1041794;28;3980;-54
2023/01/21 02:26:17;;;;;;;;;;;;;;;;;;1038955;28;4045;-52
2023/01/21 02:27:07;;;;;;;;;;;;;;;;;;1039960;28;4118;-50
2023/01/21 02:27:43;;;;;;;;;;;;;;;;;;1035265;28;3948;-53
2023/01/21 02:28:32;;;;;;;;;;;;;;;;;;1034302;28;2057;-53
2023/01/21 02:29:08;;;;;;;;;;;;;;;;;;1035554;28;3801;-50
2023/01/21 02:29:54;;;;;;;;;;;;;;;;;;1040605;28;3803;-52
2023/01/21 02:30:24;;;;;;;;;;;;;;;;;;1039922;28;2776;-49
2023/01/21 02:31:16;;;;;;;;;;;;;;;;;;1039018;28;3787;-53
2023/01/21 02:31:59;;;;;;;;;;;;;;;;;;1040691;28;3961;-52
2023/01/21 02:32:39;;;;;;;;;;;;;;;;;;1038895;28;2124;-51
2023/01/21 02:33:21;;;;;;;;;;;;;;;;;;1042523;28;5243;-50
2023/01/21 02:34:01;;;;;;;;;;;;;;;;;;1039044;28;4014;-50
2023/01/21 02:34:34;;;;;;;;;;;;;;;;;;1038422;28;4106;-49
2023/01/21 02:35:24;;;;;;;;;;;;;;;;;;1038973;28;2215;-48
2023/01/21 02:36:03;;;;;;;;;;;;;;;;;;1033818;28;4056;-52
2023/01/21 02:36:33;;;;;;;;;;;;;;;;;;1039883;28;3764;-48
2023/01/21 02:37:07;;;;;;;;;;;;;;;;;;1041706;28;2495;-52
2023/01/21 02:37:53;;;;;;;;;;;;;;;;;;1039527;28;3812;-49
2023/01/21 02:38:23;;;;;;;;;;;;;;;;;;1040317;28;2414;-53
2023/01/21 02:39:01;;;;;;;;;;;;;;;;;;1041017;28;3899;-50
2023/01/21 02:39:50;;;;;;;;;;;;;;;;;;1040456;28;4225;-47
2023/01/21 02:40:28;;;;;;;;;;;;;;;;;;1041338;28;2087;-49
2023/01/21 02:41:05;;;;;;;;;;;;;;;;;;1038590;28;3958;-52
2023/01/21 02:41:52;;;;;;;;;;;;;;;;;;1040253;28;3797;-50
2023/01/21 02:42:26;;;;;;;;;;;;;;;;;;1039510;28;2691;-54
2023/01/21 02:43:07;;;;;;;;;;;;;;;;;;1039474;28;3981;-49
2023/01/21 02:43:56;;;;;;;;;;;;;;;;;;1038954;28;3798;-54
2023/01/21 02:44:32;;;;;;;;;;;;;;;;;;1040624;28;2507;-49
2023/01/21 02:45:17;;;;;;;;;;;;;;;;;;1038550;28;3902;-52
2023/01/21 02:45:54;;;;;;;;;;;;;;;;;;1039113;28;4049;-53
2023/01/21 02:46:30;;;;;;;;;;;;;;;;;;1039649;28;3043;-52
2023/01/21 02:47:13;;;;;;;;;;;;;;;;;;1037787;28;4011;-50
2023/01/21 02:47:44;;;;;;;;;;;;;;;;;;1041746;28;4369;-50
2023/01/21 02:48:20;;;;;;;;;;;;;;;;;;1040778;28;2061;-51
2023/01/21 02:48:59;;;;;;;;;;;;;;;;;;1041908;28;4045;-52
2023/01/21 02:49:38;;;;;;;;;;;;;;;;;;1042258;28;1686;-48
2023/01/21 02:50:29;;;;;;;;;;;;;;;;;;1040717;28;3953;-49
2023/01/21 02:51:00;;;;;;;;;;;;;;;;;;1038760;28;3948;-52
2023/01/21 02:51:31;;;;;;;;;;;;;;;;;;1040257;28;3804;-52
2023/01/21 02:52:01;;;;;;;;;;;;;;;;;;1040121;28;2758;-52
2023/01/21 02:52:31;;;;;;;;;;;;;;;;;;1040765;28;4420;-54
2023/01/21 02:53:02;;;;;;;;;;;;;;;;;;1038722;28;1898;-49
2023/01/21 02:53:35;;;;;;;;;;;;;;;;;;1039079;28;4034;-50
2023/01/21 02:54:11;;;;;;;;;;;;;;;;;;1039532;28;2844;-53
2023/01/21 02:54:42;;;;;;;;;;;;;;;;;;1039328;28;4067;-50
2023/01/21 02:55:14;;;;;;;;;;;;;;;;;;1040736;28;3580;-49
2023/01/21 02:55:44;;;;;;;;;;;;;;;;;;1040023;28;4447;-50
2023/01/21 02:56:16;;;;;;;;;;;;;;;;;;1041305;28;2506;-54
2023/01/21 02:56:47;;;;;;;;;;;;;;;;;;1039952;28;3821;-52
2023/01/21 02:57:21;;;;;;;;;;;;;;;;;;1039295;28;3246;-52
2023/01/21 02:57:53;;;;;;;;;;;;;;;;;;1033219;28;3823;-50
2023/01/21 02:58:27;;;;;;;;;;;;;;;;;;1037404;28;2208;-48
2023/01/21 02:59:02;;;;;;;;;;;;;;;;;;1036612;28;3978;-52
2023/01/21 02:59:33;;;;;;;;;;;;;;;;;;1038922;28;3816;-49
2023/01/21 03:00:07;;;;;;;;;;;;;;;;;;1039455;28;2265;-54
2023/01/21 03:00:37;;;;;;;;;;;;;;;;;;1040190;28;3991;-51
2023/01/21 03:01:29;;;;;;;;;;;;;;;;;;1042538;28;2412;-54
2023/01/21 03:02:33;;;;;;;;;;;;;;;;;;1038191;28;3877;-52
2023/01/21 03:03:15;;;;;;;;;;;;;;;;;;1028324;28;3972;-50
2023/01/21 03:04:03;;;;;;;;;;;;;;;;;;1031867;28;3945;-51
2023/01/21 03:04:41;;;;;;;;;;;;;;;;;;1034834;28;4108;-50
2023/01/21 03:05:35;;;;;;;;;;;;;;;;;;1037698;28;2119;-51
2023/01/21 03:06:17;;;;;;;;;;;;;;;;;;1035376;28;3957;-51
2023/01/21 03:06:56;;;;;;;;;;;;;;;;;;1036014;28;4074;-50
2023/01/21 03:07:30;;;;;;;;;;;;;;;;;;1035773;28;2499;-51
2023/01/21 03:08:05;;;;;;;;;;;;;;;;;;1034624;28;3953;-51
2023/01/21 03:08:40;;;;;;;;;;;;;;;;;;1036887;28;3968;-51
2023/01/21 03:09:20;;;;;;;;;;;;;;;;;;1039731;28;2111;-52
2023/01/21 03:09:50;;;;;;;;;;;;;;;;;;1038882;28;4250;-49
2023/01/21 03:10:26;;;;;;;;;;;;;;;;;;1038929;28;2773;-51
2023/01/21 03:11:11;;;;;;;;;;;;;;;;;;1039089;28;3968;-52
2023/01/21 03:11:42;;;;;;;;;;;;;;;;;;1035551;28;3963;-51
2023/01/21 03:12:38;;;;;;;;;;;;;;;;;;1034578;28;2753;-49
2023/01/21 03:13:14;;;;;;;;;;;;;;;;;;1035122;28;3925;-51
2023/01/21 03:16:55;;;;;;;;;;;;;;;;;;1035658;28;3967;-51
2023/01/21 03:17:33;;;;;;;;;;;;;;;;;;1035960;28;2549;-51
2023/01/21 03:18:07;;;;;;;;;;;;;;;;;;1037038;28;3745;-47
2023/01/21 03:18:39;;;;;;;;;;;;;;;;;;1037773;28;3956;-51
2023/01/21 03:19:11;;;;;;;;;;;;;;;;;;1035591;28;2517;-50
2023/01/21 03:20:04;;;;;;;;;;;;;;;;;;1036228;28;3819;-50
2023/01/21 03:20:39;;;;;;;;;;;;;;;;;;1036385;28;3962;-49
2023/01/21 03:21:14;;;;;;;;;;;;;;;;;;1035858;28;2051;-50
2023/01/21 03:21:45;;;;;;;;;;;;;;;;;;1035518;28;3808;-54
2023/01/21 03:22:18;;;;;;;;;;;;;;;;;;1035461;28;2702;-53
2023/01/21 03:22:52;;;;;;;;;;;;;;;;;;1035649;28;4074;-51
2023/01/21 03:23:24;;;;;;;;;;;;;;;;;;1035466;28;2681;-51
2023/01/21 03:23:56;;;;;;;;;;;;;;;;;;1037207;28;4383;-51
2023/01/21 03:24:27;;;;;;;;;;;;;;;;;;1036959;28;2150;-49
2023/01/21 03:24:58;;;;;;;;;;;;;;;;;;1035694;28;4205;-53
2023/01/21 03:25:30;;;;;;;;;;;;;;;;;;1035310;28;2075;-53
2023/01/21 03:26:01;;;;;;;;;;;;;;;;;;1038881;28;3976;-53
2023/01/21 03:26:37;;;;;;;;;;;;;;;;;;1039245;28;4136;-53
2023/01/21 03:27:08;;;;;;;;;;;;;;;;;;1041171;28;2649;-52
2023/01/21 03:27:41;;;;;;;;;;;;;;;;;;1039277;28;4087;-55
2023/01/21 03:28:15;;;;;;;;;;;;;;;;;;1038359;28;2507;-51
2023/01/21 03:28:47;;;;;;;;;;;;;;;;;;1036456;28;3993;-54
2023/01/21 03:29:22;;;;;;;;;;;;;;;;;;1037888;28;2398;-49
2023/01/21 03:29:55;;;;;;;;;;;;;;;;;;1036895;28;4056;-52
2023/01/21 03:30:27;;;;;;;;;;;;;;;;;;1035182;28;2978;-51
2023/01/21 03:31:01;;;;;;;;;;;;;;;;;;1037405;28;4064;-50
2023/01/21 03:31:33;;;;;;;;;;;;;;;;;;1035296;28;4270;-52
2023/01/21 03:32:05;;;;;;;;;;;;;;;;;;1035942;28;3037;-51
2023/01/21 03:32:35;;;;;;;;;;;;;;;;;;1036280;28;4475;-52
2023/01/21 03:33:06;;;;;;;;;;;;;;;;;;1036284;28;2568;-50
2023/01/21 03:33:39;;;;;;;;;;;;;;;;;;1035642;28;4256;-51
2023/01/21 03:34:10;;;;;;;;;;;;;;;;;;1036551;28;2291;-52
2023/01/21 03:34:43;;;;;;;;;;;;;;;;;;1034017;28;4265;-55
2023/01/21 03:35:19;;;;;;;;;;;;;;;;;;1036767;28;1921;-54
2023/01/21 03:35:52;;;;;;;;;;;;;;;;;;1038109;28;4025;-49
2023/01/21 03:36:31;;;;;;;;;;;;;;;;;;1036616;28;2149;-54
2023/01/21 03:37:08;;;;;;;;;;;;;;;;;;1036190;28;3708;-51
2023/01/21 03:37:45;;;;;;;;;;;;;;;;;;1039270;28;4321;-55
2023/01/21 03:38:28;;;;;;;;;;;;;;;;;;1040485;28;3064;-50
2023/01/21 03:39:01;;;;;;;;;;;;;;;;;;1041226;28;3993;-51
2023/01/21 03:39:47;;;;;;;;;;;;;;;;;;1035599;28;3840;-49
2023/01/21 03:40:20;;;;;;;;;;;;;;;;;;1034876;28;1850;-54
2023/01/21 03:40:58;;;;;;;;;;;;;;;;;;1034145;28;4406;-48
2023/01/21 03:41:32;;;;;;;;;;;;;;;;;;1038835;28;2114;-50
2023/01/21 03:42:02;;;;;;;;;;;;;;;;;;1034845;28;3805;-50
2023/01/21 03:42:33;;;;;;;;;;;;;;;;;;1037138;28;4457;-50
2023/01/21 03:43:03;;;;;;;;;;;;;;;;;;1035718;28;2830;-54
2023/01/21 03:43:33;;;;;;;;;;;;;;;;;;1036638;28;3960;-50
2023/01/21 03:44:04;;;;;;;;;;;;;;;;;;1037805;28;2776;-51
2023/01/21 03:44:35;;;;;;;;;;;;;;;;;;1035147;28;4418;-54
2023/01/21 03:45:05;;;;;;;;;;;;;;;;;;1035737;28;2459;-51
2023/01/21 03:45:36;;;;;;;;;;;;;;;;;;1035330;28;3987;-52
2023/01/21 03:46:09;;;;;;;;;;;;;;;;;;1034950;28;2456;-51
2023/01/21 03:46:43;;;;;;;;;;;;;;;;;;1034880;28;3912;-52
2023/01/21 03:47:19;;;;;;;;;;;;;;;;;;1036208;28;2954;-51
2023/01/21 03:47:53;;;;;;;;;;;;;;;;;;1036723;28;4490;-52
2023/01/21 03:48:38;;;;;;;;;;;;;;;;;;1036877;28;2092;-53
2023/01/21 03:49:18;;;;;;;;;;;;;;;;;;1036816;28;4073;-52
2023/01/21 03:49:55;;;;;;;;;;;;;;;;;;1036507;28;3918;-53
2023/01/21 03:50:30;;;;;;;;;;;;;;;;;;1035801;28;2726;-53
2023/01/21 03:51:12;;;;;;;;;;;;;;;;;;1035470;28;3740;-50
2023/01/21 03:51:46;;;;;;;;;;;;;;;;;;1035488;28;3839;-52
2023/01/21 03:52:18;;;;;;;;;;;;;;;;;;1036842;28;2912;-52
2023/01/21 03:52:48;;;;;;;;;;;;;;;;;;1034793;28;4365;-52
2023/01/21 03:53:19;;;;;;;;;;;;;;;;;;1037954;28;3118;-51
2023/01/21 03:53:56;;;;;;;;;;;;;;;;;;1034175;28;4260;-50
2023/01/21 03:54:26;;;;;;;;;;;;;;;;;;1037488;28;2151;-51
2023/01/21 03:54:56;;;;;;;;;;;;;;;;;;1035098;28;4393;-48
2023/01/21 03:55:27;;;;;;;;;;;;;;;;;;1034771;28;2419;-54
2023/01/21 03:55:58;;;;;;;;;;;;;;;;;;1034481;28;4050;-54
2023/01/21 03:56:29;;;;;;;;;;;;;;;;;;1037724;28;2477;-50